Time;durP1;ratioP1;P1;durP2;ratioP2;P2;SDS_P1;SDS_P2;PMS_P1;PMS_P2;Temp;Humidity;BMP_temperature;BMP_pressure;BME280_temperature;BME280_humidity;BME280_pressure;Samples;Min_cycle;Max_cycle;Signal;HPM_P1;HPM_P2
2023/01/05 00:01:00;;;;;;;76.70;12.00;;;;;;;9.35;100.00;101570.13;5053681;28;20075;-47
2023/01/05 00:03:26;;;;;;;82.00;11.70;;;;;;;9.36;100.00;101566.72;5053323;28;20049;-49
2023/01/05 00:05:51;;;;;;;87.90;11.88;;;;;;;9.37;100.00;101566.81;5053684;28;20032;-46
2023/01/05 00:08:16;;;;;;;63.83;10.70;;;;;;;9.36;100.00;101562.47;5053751;28;20039;-46
2023/01/05 00:24:27;;;;;;;78.93;11.75;;;;;;;9.31;100.00;101565.63;5053175;28;20051;-47
2023/01/05 00:26:52;;;;;;;71.03;12.23;;;;;;;9.25;100.00;101565.34;5053636;28;20119;-46
2023/01/05 00:29:18;;;;;;;81.40;12.23;;;;;;;9.23;100.00;101571.31;5053221;28;20112;-47
2023/01/05 00:31:43;;;;;;;75.85;11.88;;;;;;;9.19;100.00;101566.84;5052873;28;20021;-46
2023/01/05 00:34:08;;;;;;;79.75;12.88;;;;;;;9.18;100.00;101567.63;5052868;28;20456;-46
2023/01/05 00:36:33;;;;;;;84.93;10.48;;;;;;;9.15;100.00;101556.31;5052449;28;20025;-45
2023/01/05 00:38:59;;;;;;;64.75;10.98;;;;;;;9.12;100.00;101554.47;5053297;28;20377;-47
2023/01/05 00:41:24;;;;;;;68.93;11.73;;;;;;;9.11;100.00;101551.84;5053169;28;20040;-49
2023/01/05 00:43:49;;;;;;;77.43;11.50;;;;;;;9.06;100.00;101567.94;5052335;28;20525;-47
2023/01/05 00:46:14;;;;;;;85.07;11.77;;;;;;;9.04;100.00;101568.69;5053110;28;20024;-47
2023/01/05 00:48:40;;;;;;;68.88;11.45;;;;;;;8.98;100.00;101571.81;5052826;28;20044;-45
2023/01/05 00:51:05;;;;;;;82.25;11.70;;;;;;;8.95;100.00;101586.22;5052334;28;20025;-49
2023/01/05 00:53:30;;;;;;;56.95;10.35;;;;;;;8.90;100.00;101586.88;5052666;28;20362;-47
2023/01/05 00:55:57;;;;;;;76.55;10.95;;;;;;;8.88;100.00;101582.47;5053236;28;20017;-43
2023/01/05 00:58:22;;;;;;;65.57;11.23;;;;;;;8.88;100.00;101574.75;5052329;28;20029;-47
2023/01/05 01:00:47;;;;;;;77.90;12.27;;;;;;;8.84;100.00;101571.16;5052852;28;20369;-47
2023/01/05 01:03:13;;;;;;;68.82;11.55;;;;;;;8.80;100.00;101579.53;5052819;28;20420;-47
2023/01/05 01:05:38;;;;;;;67.85;10.90;;;;;;;8.76;100.00;101582.75;5051819;28;20021;-43
2023/01/05 01:08:03;;;;;;;71.05;11.18;;;;;;;8.74;100.00;101589.53;5052694;28;20033;-47
2023/01/05 01:10:28;;;;;;;69.15;10.95;;;;;;;8.68;100.00;101578.94;5052685;28;20027;-46
2023/01/05 01:12:54;;;;;;;72.32;11.55;;;;;;;8.67;100.00;101584.88;5052014;28;20033;-46
2023/01/05 01:15:19;;;;;;;74.68;11.38;;;;;;;8.60;100.00;101590.53;5052875;28;20021;-46
2023/01/05 01:17:45;;;;;;;71.20;12.05;;;;;;;8.56;100.00;101590.38;5052315;28;20060;-46
2023/01/05 01:20:11;;;;;;;77.45;11.07;;;;;;;8.55;100.00;101588.59;5052158;28;20096;-47
2023/01/05 01:22:36;;;;;;;79.43;11.82;;;;;;;8.54;100.00;101580.84;5052421;28;20098;-48
2023/01/05 01:25:01;;;;;;;74.90;11.40;;;;;;;8.52;100.00;101588.47;5052459;28;20032;-44
2023/01/05 01:27:29;;;;;;;86.97;10.68;;;;;;;8.47;100.00;101595.06;5052200;28;20033;-48
2023/01/05 01:29:54;;;;;;;75.97;11.98;;;;;;;8.45;100.00;101598.31;5052766;28;20029;-47
2023/01/05 01:32:19;;;;;;;83.30;11.43;;;;;;;8.41;100.00;101599.84;5052477;28;20037;-47
2023/01/05 01:34:45;;;;;;;58.63;10.43;;;;;;;8.39;100.00;101598.88;5051944;28;20384;-48
2023/01/05 01:37:12;;;;;;;71.85;10.50;;;;;;;8.32;100.00;101610.53;5052458;28;20104;-46
2023/01/05 01:39:37;;;;;;;77.00;11.00;;;;;;;8.31;100.00;101610.47;5052228;28;20028;-47
2023/01/05 01:42:02;;;;;;;73.55;12.52;;;;;;;8.31;100.00;101613.03;5052214;28;20029;-47
2023/01/05 01:44:46;;;;;;;74.90;12.00;;;;;;;8.28;100.00;101615.47;5052065;28;20036;-46
2023/01/05 01:47:35;;;;;;;73.18;11.25;;;;;;;8.27;100.00;101627.41;5055189;28;20044;-46
2023/01/05 01:50:14;;;;;;;86.95;13.55;;;;;;;8.23;100.00;101623.78;5052865;28;20110;-44
2023/01/05 01:52:41;;;;;;;78.32;12.30;;;;;;;8.29;100.00;101620.66;5056292;28;20082;-45
2023/01/05 01:55:07;;;;;;;83.05;12.18;;;;;;;8.30;100.00;101636.94;5055675;28;20447;-46
2023/01/05 01:57:34;;;;;;;71.97;11.88;;;;;;;8.29;100.00;101630.94;5056149;28;20100;-46
2023/01/05 02:00:03;;;;;;;86.30;12.10;;;;;;;8.32;100.00;101631.09;5055995;28;20422;-46
2023/01/05 02:02:29;;;;;;;80.18;12.35;;;;;;;8.33;100.00;101626.84;5055194;28;20045;-47
2023/01/05 02:05:00;;;;;;;77.15;12.57;;;;;;;8.35;100.00;101635.50;5056311;28;20047;-46
2023/01/05 02:07:31;;;;;;;68.13;11.57;;;;;;;8.40;100.00;101634.03;5055823;28;20040;-46
2023/01/05 02:09:56;;;;;;;81.07;11.05;;;;;;;8.44;100.00;101635.97;5055593;28;20081;-48
2023/01/05 02:12:49;;;;;;;74.68;12.10;;;;;;;8.47;100.00;101651.59;5056045;28;20021;-46
2023/01/05 02:15:28;;;;;;;77.68;11.02;;;;;;;8.51;100.00;101648.34;5055138;28;20384;-44
2023/01/05 02:18:00;;;;;;;74.40;12.23;;;;;;;8.59;100.00;101632.47;5056143;28;20025;-48
2023/01/05 02:20:38;;;;;;;76.78;11.77;;;;;;;8.65;100.00;101641.34;5055857;28;20465;-47
2023/01/05 02:23:30;;;;;;;88.40;13.15;;;;;;;8.68;100.00;101645.75;5054976;28;20104;-46
2023/01/05 02:26:13;;;;;;;84.20;11.63;;;;;;;8.70;100.00;101646.69;5055774;28;20033;-47
2023/01/05 02:28:54;;;;;;;76.43;11.70;;;;;;;8.70;100.00;101644.13;5055248;28;20107;-46
2023/01/05 02:31:29;;;;;;;84.03;11.40;;;;;;;8.75;100.00;101634.97;5055061;28;20115;-48
2023/01/05 02:34:18;;;;;;;81.97;11.45;;;;;;;8.78;100.00;101641.94;5055894;28;20025;-47
2023/01/05 02:37:31;;;;;;;86.05;11.57;;;;;;;8.84;100.00;101640.56;5054742;28;20025;-45
2023/01/05 02:40:09;;;;;;;92.10;12.52;;;;;;;8.85;100.00;101634.63;5055710;28;20032;-46
2023/01/05 02:42:37;;;;;;;78.10;12.00;;;;;;;8.87;100.00;101639.81;5055179;28;20025;-47
2023/01/05 02:45:05;;;;;;;88.47;12.80;;;;;;;8.92;100.00;101652.91;5055025;28;20021;-47
2023/01/05 02:47:36;;;;;;;87.00;12.02;;;;;;;8.94;100.00;101643.59;5055001;28;20029;-48
2023/01/05 02:50:07;;;;;;;70.63;11.68;;;;;;;8.94;100.00;101653.88;5055025;28;20465;-46
2023/01/05 02:53:02;;;;;;;70.97;11.95;;;;;;;9.01;100.00;101656.84;5054661;28;20021;-47
2023/01/05 02:56:00;;;;;;;83.95;13.23;;;;;;;9.03;100.00;101649.19;5049913;28;20037;-42
2023/01/05 02:58:35;;;;;;;76.22;11.25;;;;;;;9.04;100.00;101645.81;5052174;28;20033;-47
2023/01/05 03:01:10;;;;;;;69.03;10.88;;;;;;;9.08;100.00;101652.88;5055331;28;20062;-47
2023/01/05 03:03:42;;;;;;;85.32;12.55;;;;;;;9.13;100.00;101655.66;5054715;28;20040;-47
2023/01/05 03:06:23;;;;;;;72.70;10.68;;;;;;;9.14;100.00;101645.47;5054644;28;20120;-44
2023/01/05 03:08:54;;;;;;;70.13;11.38;;;;;;;9.16;100.00;101645.53;5054574;28;20036;-47
2023/01/05 03:14:40;;;;;;;67.35;10.98;;;;;;;9.18;100.00;101652.50;5055152;28;20032;-46
2023/01/05 03:17:09;;;;;;;89.80;12.75;;;;;;;9.17;100.00;101668.75;5036219;28;20037;-47
2023/01/05 03:19:39;;;;;;;67.70;10.75;;;;;;;9.19;100.00;101661.09;5053841;28;20032;-44
2023/01/05 03:37:09;;;;;;;74.13;11.60;;;;;;;9.21;100.00;101659.50;5054489;28;20032;-47
2023/01/05 03:39:39;;;;;;;71.55;11.00;;;;;;;9.21;100.00;101657.78;5053255;28;20029;-46
2023/01/05 03:42:07;;;;;;;71.55;12.30;;;;;;;9.22;100.00;101669.84;5054346;28;20029;-47
2023/01/05 03:44:35;;;;;;;70.30;10.70;;;;;;;9.25;100.00;101668.25;5053860;28;20021;-43
2023/01/05 03:47:00;;;;;;;79.32;12.40;;;;;;;9.27;100.00;101656.31;5053354;28;20494;-45
2023/01/05 03:49:26;;;;;;;68.30;10.90;;;;;;;9.25;100.00;101655.38;5054389;28;20029;-47
2023/01/05 03:51:51;;;;;;;64.30;10.13;;;;;;;9.27;100.00;101664.03;5053989;28;20044;-47
2023/01/05 03:54:16;;;;;;;70.25;10.68;;;;;;;9.29;100.00;101654.72;5053433;28;20512;-47
2023/01/05 03:56:41;;;;;;;76.55;10.75;;;;;;;9.30;100.00;101657.34;5053724;28;20487;-46
2023/01/05 03:59:07;;;;;;;63.05;10.57;;;;;;;9.33;100.00;101661.75;5053655;28;20021;-45
2023/01/05 04:01:32;;;;;;;73.15;10.98;;;;;;;9.33;100.00;101665.19;5053090;28;20132;-46
2023/01/05 04:03:57;;;;;;;66.68;10.70;;;;;;;9.35;100.00;101670.44;5053982;28;20082;-47
2023/01/05 04:06:23;;;;;;;82.03;10.85;;;;;;;9.37;100.00;101663.66;5053695;28;20017;-45
2023/01/05 04:08:48;;;;;;;72.63;10.57;;;;;;;9.37;100.00;101656.84;5053023;28;20384;-46
2023/01/05 04:11:19;;;;;;;83.10;11.10;;;;;;;9.37;100.00;101674.84;5053703;28;20040;-43
2023/01/05 04:13:45;;;;;;;71.45;9.88;;;;;;;9.37;100.00;101655.94;5053188;28;20033;-46
2023/01/05 04:16:11;;;;;;;74.47;11.32;;;;;;;9.37;100.00;101671.38;5053410;28;20036;-47
2023/01/05 04:18:36;;;;;;;77.60;10.93;;;;;;;9.37;100.00;101662.00;5053531;28;20029;-44
2023/01/05 04:21:02;;;;;;;79.18;12.07;;;;;;;9.37;100.00;101668.81;5053495;28;20111;-46
2023/01/05 04:23:28;;;;;;;77.53;12.23;;;;;;;9.40;100.00;101671.56;5052854;28;20442;-43
2023/01/05 04:25:53;;;;;;;75.28;11.10;;;;;;;9.38;100.00;101668.00;5053462;28;20400;-47
2023/01/05 04:28:18;;;;;;;74.35;10.38;;;;;;;9.39;100.00;101669.78;5053386;28;20040;-47
2023/01/05 04:30:44;;;;;;;75.35;11.38;;;;;;;9.42;100.00;101662.19;5052575;28;20029;-48
2023/01/05 04:33:10;;;;;;;70.38;11.00;;;;;;;9.46;100.00;101658.94;5053519;28;20104;-47
2023/01/05 04:35:35;;;;;;;82.95;11.77;;;;;;;9.44;100.00;101658.00;5052747;28;20025;-48
2023/01/05 04:38:00;;;;;;;63.40;10.77;;;;;;;9.46;100.00;101661.53;5052963;28;20025;-45
2023/01/05 04:40:25;;;;;;;78.47;11.43;;;;;;;9.46;100.00;101670.94;5053468;28;20032;-46
2023/01/05 04:42:51;;;;;;;66.10;11.27;;;;;;;9.41;100.00;101675.00;5052175;28;20025;-47
2023/01/05 04:45:16;;;;;;;86.10;11.77;;;;;;;9.42;100.00;101675.06;5053457;28;20066;-47
2023/01/05 04:47:41;;;;;;;72.85;11.45;;;;;;;9.40;100.00;101671.56;5052997;28;20492;-47
2023/01/05 04:50:07;;;;;;;78.20;11.82;;;;;;;9.38;100.00;101670.56;5052548;28;20032;-47
2023/01/05 04:52:33;;;;;;;99.18;11.88;;;;;;;9.38;100.00;101666.31;5052731;28;20051;-43
2023/01/05 04:54:58;;;;;;;67.78;11.07;;;;;;;9.39;100.00;101673.22;5053113;28;20029;-46
2023/01/05 04:57:23;;;;;;;62.90;10.27;;;;;;;9.41;100.00;101668.13;5052221;28;20075;-45
2023/01/05 04:59:49;;;;;;;84.22;12.20;;;;;;;9.42;100.00;101663.91;5052853;28;20033;-48
2023/01/05 05:02:14;;;;;;;91.40;13.07;;;;;;;9.43;100.00;101678.53;5052459;28;20049;-47
2023/01/05 05:04:40;;;;;;;65.10;10.45;;;;;;;9.41;100.00;101675.00;5052189;28;20025;-47
2023/01/05 05:07:05;;;;;;;81.78;11.23;;;;;;;9.41;100.00;101678.44;5052861;28;20031;-48
2023/01/05 05:09:31;;;;;;;78.50;11.65;;;;;;;9.41;100.00;101678.44;5052370;28;20083;-47
2023/01/05 05:11:56;;;;;;;84.22;12.32;;;;;;;9.39;100.00;101680.94;5052164;28;20108;-45
2023/01/05 05:14:21;;;;;;;79.90;12.23;;;;;;;9.41;100.00;101688.72;5053040;28;20021;-47
2023/01/05 05:16:47;;;;;;;85.78;11.10;;;;;;;9.41;100.00;101699.00;5052443;28;20037;-46
2023/01/05 05:19:12;;;;;;;70.22;10.75;;;;;;;9.42;100.00;101707.63;5052469;28;20427;-47
2023/01/05 05:21:37;;;;;;;79.43;11.57;;;;;;;9.46;100.00;101709.53;5051973;28;20039;-46
2023/01/05 05:24:03;;;;;;;64.78;11.90;;;;;;;9.49;100.00;101697.72;5052490;28;20469;-45
2023/01/05 05:26:28;;;;;;;86.20;11.98;;;;;;;9.50;100.00;101704.63;5051768;28;20029;-43
2023/01/05 05:28:53;;;;;;;74.18;11.85;;;;;;;9.52;100.00;101705.56;5052931;28;20033;-43
2023/01/05 05:31:18;;;;;;;79.95;11.20;;;;;;;9.54;100.00;101706.53;5052560;28;20024;-47
2023/01/05 05:33:44;;;;;;;76.75;11.75;;;;;;;9.53;100.00;101702.19;5052012;28;20368;-47
2023/01/05 05:36:09;;;;;;;74.88;11.23;;;;;;;9.53;100.00;101709.91;5052650;28;20032;-45
2023/01/05 05:38:34;;;;;;;88.18;13.48;;;;;;;9.53;100.00;101704.75;5051943;28;20029;-47
2023/01/05 05:41:00;;;;;;;72.88;11.25;;;;;;;9.53;100.00;101717.63;5051934;28;20479;-46
2023/01/05 05:43:25;;;;;;;66.88;11.50;;;;;;;9.52;100.00;101723.56;5052796;28;20033;-46
2023/01/05 05:45:50;;;;;;;90.45;12.88;;;;;;;9.48;100.00;101721.66;5052169;28;20025;-46
2023/01/05 05:48:16;;;;;;;90.88;12.73;;;;;;;9.44;100.00;101730.06;5052055;28;20460;-47
2023/01/05 05:50:43;;;;;;;71.72;11.88;;;;;;;9.43;100.00;101732.56;5052259;28;20025;-47
2023/01/05 05:53:08;;;;;;;80.70;11.90;;;;;;;9.43;100.00;101722.28;5052080;28;20032;-47
2023/01/05 05:55:33;;;;;;;81.30;12.18;;;;;;;9.41;100.00;101734.16;5052077;28;20060;-46
2023/01/05 05:57:59;;;;;;;82.50;11.43;;;;;;;9.41;100.00;101739.31;5052637;28;20025;-46
2023/01/05 06:00:24;;;;;;;75.10;11.30;;;;;;;9.39;100.00;101739.25;5051835;28;20032;-46
2023/01/05 06:02:49;;;;;;;81.32;12.15;;;;;;;9.37;100.00;101746.00;5051861;28;20531;-45
2023/01/05 06:05:15;;;;;;;83.10;12.90;;;;;;;9.36;100.00;101747.69;5052286;28;20029;-44
2023/01/05 06:07:40;;;;;;;77.53;12.32;;;;;;;9.37;100.00;101743.41;5051358;28;20050;-47
2023/01/05 06:10:06;;;;;;;95.18;11.88;;;;;;;9.37;100.00;101757.19;5052397;28;20040;-46
2023/01/05 06:12:31;;;;;;;78.10;11.77;;;;;;;9.37;100.00;101753.72;5051751;28;20376;-47
2023/01/05 06:14:57;;;;;;;90.72;12.80;;;;;;;9.36;100.00;101745.13;5051872;28;20171;-46
2023/01/05 06:17:22;;;;;;;83.95;11.85;;;;;;;9.36;100.00;101742.56;5052820;28;20033;-46
2023/01/05 06:19:47;;;;;;;76.65;10.93;;;;;;;9.31;100.00;101753.41;5052124;28;20399;-46
2023/01/05 06:22:12;;;;;;;76.30;12.15;;;;;;;9.23;100.00;101755.59;5051697;28;20029;-45
2023/01/05 06:24:38;;;;;;;90.55;13.20;;;;;;;9.16;100.00;101762.13;5051783;28;20029;-47
2023/01/05 06:27:03;;;;;;;84.45;12.95;;;;;;;9.12;100.00;101778.22;5051889;28;20083;-47
2023/01/05 06:29:28;;;;;;;87.60;12.73;;;;;;;9.10;100.00;101774.66;5051593;28;20018;-46
2023/01/05 06:31:54;;;;;;;86.75;12.90;;;;;;;9.07;100.00;101780.53;5052112;28;20072;-46
2023/01/05 06:34:19;;;;;;;77.93;13.13;;;;;;;9.07;100.00;101779.69;5055205;28;20032;-44
2023/01/05 06:36:44;;;;;;;78.28;12.85;;;;;;;9.06;100.00;101776.22;5054705;28;20024;-45
2023/01/05 06:39:10;;;;;;;87.00;13.10;;;;;;;9.06;100.00;101783.03;5055531;28;20032;-46
2023/01/05 06:41:35;;;;;;;93.30;12.23;;;;;;;9.05;100.00;101792.47;5054996;28;20025;-47
2023/01/05 06:44:00;;;;;;;84.05;12.73;;;;;;;9.05;100.00;101796.69;5055151;28;20503;-46
2023/01/05 06:46:26;;;;;;;91.57;12.55;;;;;;;9.08;100.00;101807.16;5055699;28;20028;-46
2023/01/05 06:48:51;;;;;;;91.25;13.38;;;;;;;9.08;100.00;101802.03;5054851;28;20029;-45
2023/01/05 06:51:17;;;;;;;84.53;13.02;;;;;;;9.10;100.00;101805.53;5054923;28;20021;-46
2023/01/05 06:53:42;;;;;;;86.82;12.80;;;;;;;9.09;100.00;101797.75;5055057;28;20025;-47
2023/01/05 06:56:07;;;;;;;96.28;12.68;;;;;;;9.06;100.00;101813.91;5054970;28;20033;-47
2023/01/05 06:58:33;;;;;;;75.10;12.68;;;;;;;9.07;100.00;101820.81;5054633;28;20017;-46
2023/01/05 07:00:58;;;;;;;92.70;13.32;;;;;;;9.08;100.00;101814.88;5055047;28;20048;-46
2023/01/05 07:03:23;;;;;;;79.78;13.02;;;;;;;9.10;100.00;101813.25;5054129;28;20083;-44
2023/01/05 07:05:50;;;;;;;84.70;12.48;;;;;;;9.09;100.00;101813.19;5054862;28;20021;-43
2023/01/05 07:08:15;;;;;;;86.88;13.02;;;;;;;9.08;100.00;101812.31;5054937;28;20039;-47
2023/01/05 07:10:40;;;;;;;99.20;13.35;;;;;;;9.10;100.00;101813.25;5053797;28;20033;-45
2023/01/05 07:13:06;;;;;;;90.45;13.10;;;;;;;9.11;100.00;101817.59;5055093;28;20029;-46
2023/01/05 07:15:31;;;;;;;91.95;13.73;;;;;;;9.12;100.00;101816.78;5054566;28;20028;-47
2023/01/05 07:17:56;;;;;;;93.90;12.27;;;;;;;9.12;100.00;101816.78;5054441;28;20025;-43
2023/01/05 07:20:22;;;;;;;88.00;13.07;;;;;;;9.11;100.00;101817.59;5055072;28;20104;-47
2023/01/05 07:22:47;;;;;;;96.35;13.27;;;;;;;9.14;100.00;101817.78;5054450;28;20133;-47
2023/01/05 07:25:12;;;;;;;90.80;12.57;;;;;;;9.15;100.00;101827.22;5054220;28;20488;-47
2023/01/05 07:27:37;;;;;;;96.30;12.77;;;;;;;9.16;100.00;101825.56;5054463;28;20072;-43
2023/01/05 07:30:03;;;;;;;84.15;12.75;;;;;;;9.15;100.00;101824.66;5054510;28;20040;-47
2023/01/05 07:32:28;;;;;;;78.32;12.63;;;;;;;9.13;100.00;101822.81;5053584;28;20151;-46
2023/01/05 07:34:54;;;;;;;86.22;13.82;;;;;;;9.14;100.00;101838.34;5054648;28;20032;-48
2023/01/05 07:37:19;;;;;;;85.65;12.65;;;;;;;9.14;100.00;101833.19;5054150;28;20021;-47
2023/01/05 07:39:44;;;;;;;85.25;12.60;;;;;;;9.11;100.00;101827.00;5053512;28;20370;-47
2023/01/05 07:42:10;;;;;;;89.38;14.00;;;;;;;9.11;100.00;101842.44;5054529;28;20092;-47
2023/01/05 07:44:36;;;;;;;90.60;13.10;;;;;;;9.10;100.00;101836.41;5053536;28;20021;-47
2023/01/05 07:47:02;;;;;;;91.45;13.48;;;;;;;9.11;100.00;101838.16;5053428;28;20533;-46
2023/01/05 07:49:28;;;;;;;92.78;13.95;;;;;;;9.10;100.00;101846.69;5054066;28;20096;-43
2023/01/05 07:51:53;;;;;;;96.13;13.63;;;;;;;9.10;100.00;101849.25;5053860;28;20032;-44
2023/01/05 07:54:20;;;;;;;92.30;14.27;;;;;;;9.11;100.00;101853.59;5053481;28;20025;-47
2023/01/05 07:56:45;;;;;;;96.35;14.30;;;;;;;9.11;100.00;101848.44;5054011;28;20065;-47
2023/01/05 07:59:11;;;;;;;96.47;13.75;;;;;;;9.13;100.00;101849.44;5053722;28;20468;-47
2023/01/05 08:01:36;;;;;;;96.70;14.15;;;;;;;9.13;100.00;101857.16;5053129;28;20048;-46
2023/01/05 08:04:01;;;;;;;92.13;13.10;;;;;;;9.15;100.00;101855.50;5054000;28;20025;-48
2023/01/05 08:06:27;;;;;;;97.45;13.90;;;;;;;9.12;100.00;101860.50;5053740;28;20029;-46
2023/01/05 08:08:52;;;;;;;101.15;13.70;;;;;;;9.13;100.00;101862.28;5053092;28;20031;-47
2023/01/05 08:11:19;;;;;;;93.93;12.98;;;;;;;9.12;100.00;101868.22;5053691;28;20025;-46
2023/01/05 08:14:01;;;;;;;94.35;13.77;;;;;;;9.12;100.00;101870.81;5052866;28;20021;-45
2023/01/05 08:16:28;;;;;;;102.43;13.57;;;;;;;9.13;100.00;101871.69;5053650;28;20057;-46
2023/01/05 08:18:54;;;;;;;94.05;13.73;;;;;;;9.14;100.00;101883.75;5053530;28;20037;-47
2023/01/05 08:21:19;;;;;;;93.70;14.50;;;;;;;9.15;100.00;101882.94;5053029;28;20037;-47
2023/01/05 08:23:49;;;;;;;91.78;13.10;;;;;;;9.14;100.00;101882.06;5053132;28;20082;-47
2023/01/05 08:26:17;;;;;;;91.40;14.38;;;;;;;9.15;100.00;101883.81;5053405;28;20378;-47
2023/01/05 08:28:43;;;;;;;102.75;14.18;;;;;;;9.15;100.00;101876.09;5052720;28;20029;-45
2023/01/05 08:31:15;;;;;;;98.50;13.85;;;;;;;9.16;100.00;101885.59;5053407;28;20029;-45
2023/01/05 08:33:40;;;;;;;91.05;13.57;;;;;;;9.15;100.00;101881.25;5052867;28;20105;-47
2023/01/05 08:36:10;;;;;;;95.22;14.82;;;;;;;9.17;100.00;101895.06;5052802;28;20104;-47
2023/01/05 08:38:36;;;;;;;98.97;14.48;;;;;;;9.18;100.00;101895.94;5053190;28;20044;-43
2023/01/05 08:41:02;;;;;;;91.80;13.48;;;;;;;9.20;100.00;101902.94;5053129;28;20024;-44
2023/01/05 08:43:27;;;;;;;96.78;13.93;;;;;;;9.24;100.00;101901.41;5052942;28;20112;-44
2023/01/05 08:45:52;;;;;;;96.18;14.77;;;;;;;9.26;100.00;101914.34;5053210;28;20053;-48
2023/01/05 08:48:17;;;;;;;93.18;13.57;;;;;;;9.30;100.00;101917.19;5052899;28;20036;-47
2023/01/05 08:50:43;;;;;;;92.78;13.73;;;;;;;9.33;100.00;101911.31;5052264;28;20378;-48
2023/01/05 08:53:08;;;;;;;109.38;14.55;;;;;;;9.34;100.00;101908.81;5053221;28;20036;-46
2023/01/05 08:55:34;;;;;;;102.88;15.00;;;;;;;9.35;100.00;101917.44;5052079;28;20104;-44
2023/01/05 08:57:59;;;;;;;95.10;13.48;;;;;;;9.35;100.00;101922.56;5052688;28;20376;-45
2023/01/05 09:00:24;;;;;;;95.10;14.15;;;;;;;9.36;100.00;101921.75;5053200;28;20033;-47
2023/01/05 09:02:49;;;;;;;98.47;13.43;;;;;;;9.39;100.00;101927.06;5052517;28;20071;-47
2023/01/05 09:05:15;;;;;;;95.57;14.23;;;;;;;9.42;100.00;101927.22;5052366;28;20100;-46
2023/01/05 09:07:41;;;;;;;93.43;13.65;;;;;;;9.42;100.00;101929.78;5052462;28;20032;-48
2023/01/05 09:10:07;;;;;;;84.28;13.52;;;;;;;9.41;100.00;101925.44;5052244;28;20035;-48
2023/01/05 09:12:37;;;;;;;88.18;12.27;;;;;;;9.41;100.00;101935.72;5052618;28;20082;-48
2023/01/05 09:15:05;;;;;;;86.95;13.55;;;;;;;9.43;100.00;101941.84;5052764;28;20021;-47
2023/01/05 09:17:32;;;;;;;94.38;14.00;;;;;;;9.48;100.00;101944.69;5051869;28;20452;-49
2023/01/05 09:19:57;;;;;;;84.55;12.68;;;;;;;9.52;100.00;101950.03;5052667;28;20060;-49
2023/01/05 09:22:23;;;;;;;100.00;13.25;;;;;;;9.53;100.00;101948.38;5052716;28;20049;-46
2023/01/05 09:24:48;;;;;;;96.55;13.73;;;;;;;9.53;100.00;101951.81;5051987;28;20083;-47
2023/01/05 09:27:13;;;;;;;99.80;13.18;;;;;;;9.52;100.00;101944.91;5052611;28;20108;-44
2023/01/05 09:29:38;;;;;;;92.13;13.43;;;;;;;9.50;100.00;101951.66;5052103;28;20033;-47
2023/01/05 09:32:05;;;;;;;100.70;13.40;;;;;;;9.47;100.00;101961.78;5052149;28;20112;-48
2023/01/05 09:34:30;;;;;;;91.55;14.18;;;;;;;9.48;100.00;101963.56;5052207;28;20025;-48
2023/01/05 09:36:55;;;;;;;95.35;13.60;;;;;;;9.48;100.00;101963.56;5052632;28;20491;-48
2023/01/05 09:39:21;;;;;;;96.18;14.15;;;;;;;9.48;100.00;101971.28;5052056;28;20044;-47
2023/01/05 09:41:50;;;;;;;95.70;14.20;;;;;;;9.48;100.00;101972.97;5052329;28;20338;-48
2023/01/05 09:44:38;;;;;;;89.25;13.63;;;;;;;9.49;100.00;101970.47;5052295;28;20029;-47
2023/01/05 09:47:14;;;;;;;97.57;13.80;;;;;;;9.53;100.00;101982.69;5051866;28;20028;-48
2023/01/05 09:49:40;;;;;;;87.15;13.68;;;;;;;9.56;100.00;101972.56;5052367;28;20070;-49
2023/01/05 09:52:09;;;;;;;103.32;13.45;;;;;;;9.56;100.00;101985.41;5052341;28;20483;-46
2023/01/05 09:54:36;;;;;;;78.03;12.80;;;;;;;9.63;100.00;101984.06;5052161;28;20036;-46
2023/01/05 09:57:03;;;;;;;82.28;13.00;;;;;;;9.64;100.00;101985.81;5052332;28;20112;-47
2023/01/05 09:59:35;;;;;;;97.15;13.90;;;;;;;9.72;100.00;101983.63;5051667;28;20041;-47
2023/01/05 10:02:09;;;;;;;102.10;13.88;;;;;;;9.75;100.00;101985.50;5052432;28;20049;-48
2023/01/05 10:04:34;;;;;;;86.07;13.98;;;;;;;9.83;100.00;101992.81;5051983;28;20025;-48
2023/01/05 10:07:06;;;;;;;91.60;13.45;;;;;;;9.81;100.00;101994.44;5053227;28;20032;-48
2023/01/05 10:09:38;;;;;;;108.97;14.15;;;;;;;9.89;100.00;101993.13;5055706;28;20115;-48
2023/01/05 10:15:20;;;;;;;103.18;14.23;;;;;;;10.08;100.00;101981.16;5055901;28;20131;-47
2023/01/05 10:17:46;;;;;;;96.65;14.13;;;;;;;10.04;100.00;101997.28;5055702;28;20035;-44
2023/01/05 10:20:35;;;;;;;90.05;12.20;;;;;;;10.05;100.00;101993.91;5055584;28;20103;-47
2023/01/05 10:23:05;;;;;;;96.30;14.52;;;;;;;10.03;100.00;101996.41;5056054;28;20040;-46
2023/01/05 10:25:38;;;;;;;104.95;14.27;;;;;;;10.07;100.00;102000.03;5055167;28;20029;-47
2023/01/05 10:28:19;;;;;;;86.57;12.82;;;;;;;9.99;100.00;102004.78;5055277;28;20040;-48
2023/01/05 10:30:58;;;;;;;86.18;12.25;;;;;;;9.99;100.00;102002.22;5055551;28;20057;-48
2023/01/05 10:33:36;;;;;;;91.72;13.60;;;;;;;9.99;100.00;102011.59;5055673;28;20025;-47
2023/01/05 10:36:18;;;;;;;101.65;14.75;;;;;;;10.01;100.00;102002.28;5055387;28;20021;-47
2023/01/05 10:39:01;;;;;;;84.68;13.50;;;;;;;9.97;100.00;101997.78;5055289;28;20100;-48
2023/01/05 10:41:48;;;;;;;96.13;14.32;;;;;;;9.93;100.00;102003.56;5055023;28;20465;-47
2023/01/05 10:44:16;;;;;;;89.45;13.90;;;;;;;9.91;100.00;102008.66;5055676;28;20025;-48
2023/01/05 10:46:47;;;;;;;94.18;14.15;;;;;;;9.92;100.00;102007.84;5054776;28;20064;-47
2023/01/05 10:49:19;;;;;;;89.55;14.32;;;;;;;9.93;100.00;102008.72;5054800;28;20063;-48
2023/01/05 10:51:45;;;;;;;90.43;15.02;;;;;;;9.97;100.00;102006.38;5055109;28;20143;-48
2023/01/05 10:54:36;;;;;;;80.93;13.73;;;;;;;10.05;100.00;102006.78;5055193;28;20416;-45
2023/01/05 10:57:27;;;;;;;90.80;13.77;;;;;;;10.04;100.00;102007.56;5054961;28;20028;-48
2023/01/05 11:00:22;;;;;;;98.15;14.38;;;;;;;10.00;100.00;102010.81;5055048;28;20033;-44
2023/01/05 11:02:51;;;;;;;99.03;14.13;;;;;;;10.00;100.00;102015.97;5052981;28;20045;-48
2023/01/05 11:05:32;;;;;;;94.85;15.02;;;;;;;10.00;100.00;102010.81;5055222;28;20032;-48
2023/01/05 11:08:00;;;;;;;109.07;15.02;;;;;;;10.00;100.00;102023.69;5054846;28;20033;-49
2023/01/05 11:10:40;;;;;;;92.80;15.25;;;;;;;10.01;100.00;102028.03;5054406;28;20075;-48
2023/01/05 11:13:18;;;;;;;94.43;14.85;;;;;;;9.94;100.00;102025.94;5054868;28;20444;-47
2023/01/05 11:15:53;;;;;;;93.85;13.25;;;;;;;9.93;100.00;102025.06;5054556;28;20029;-48
2023/01/05 11:18:22;;;;;;;88.75;13.68;;;;;;;9.96;100.00;102022.63;5053620;28;20040;-46
2023/01/05 11:21:14;;;;;;;112.95;16.02;;;;;;;10.02;100.00;102024.66;5054453;28;20043;-49
2023/01/05 11:23:47;;;;;;;97.30;14.60;;;;;;;10.08;100.00;102014.66;5053905;28;20083;-48
2023/01/05 11:26:18;;;;;;;95.07;14.95;;;;;;;10.10;100.00;102012.16;5054781;28;20487;-49
2023/01/05 11:29:00;;;;;;;97.00;16.58;;;;;;;10.30;100.00;102014.06;5053956;28;20029;-47
2023/01/05 11:31:32;;;;;;;94.70;13.88;;;;;;;10.60;100.00;102000.91;5054263;28;20040;-48
2023/01/05 11:33:59;;;;;;;90.35;14.98;;;;;;;10.66;98.33;102000.31;5054753;28;20056;-46
2023/01/05 11:36:25;;;;;;;98.13;15.27;;;;;;;10.85;98.23;101994.34;5054371;28;20431;-48
2023/01/05 11:38:54;;;;;;;89.30;15.00;;;;;;;11.03;96.51;101996.88;5053687;28;20029;-48
2023/01/05 11:41:21;;;;;;;88.20;14.38;;;;;;;11.08;96.30;101997.97;5054281;28;20025;-47
2023/01/05 11:43:47;;;;;;;102.95;15.10;;;;;;;11.14;95.11;101998.28;5054061;28;20063;-47
2023/01/05 11:46:14;;;;;;;103.43;15.30;;;;;;;10.99;95.01;102000.16;5054013;28;20158;-48
2023/01/05 11:48:51;;;;;;;90.85;13.60;;;;;;;10.79;95.12;101997.50;5053861;28;20028;-46
2023/01/05 11:51:37;;;;;;;83.13;14.20;;;;;;;10.74;97.07;101998.97;5054157;28;20104;-47